sensor_id;sensor_type;location;lat;lon;timestamp;pressure;altitude;pressure_sealevel;temperature;humidity
36222;BME280;22266;52.340;4.962;2023-01-28T00:01:00;103020.19;;;4.11;69.89
36222;BME280;22266;52.340;4.962;2023-01-28T00:03:29;103029.34;;;4.07;69.92
36222;BME280;22266;52.340;4.962;2023-01-28T00:06:04;103036.38;;;4.08;69.93
36222;BME280;22266;52.340;4.962;2023-01-28T00:08:31;103031.22;;;4.05;70.25
36222;BME280;22266;52.340;4.962;2023-01-28T00:11:03;103024.97;;;4.06;70.19
36222;BME280;22266;52.340;4.962;2023-01-28T00:13:30;103027.41;;;4.09;70.13
36222;BME280;22266;52.340;4.962;2023-01-28T00:16:00;103018.88;;;4.04;70.04
36222;BME280;22266;52.340;4.962;2023-01-28T00:18:28;103017.34;;;4.00;70.13
36222;BME280;22266;52.340;4.962;2023-01-28T00:20:58;103018.63;;;3.94;70.28
36222;BME280;22266;52.340;4.962;2023-01-28T00:23:26;103024.59;;;3.83;69.21
36222;BME280;22266;52.340;4.962;2023-01-28T00:25:53;103016.06;;;3.78;70.36
36222;BME280;22266;52.340;4.962;2023-01-28T00:28:20;103012.53;;;3.78;70.44
36222;BME280;22266;52.340;4.962;2023-01-28T00:30:47;103011.28;;;3.83;70.00
36222;BME280;22266;52.340;4.962;2023-01-28T00:33:13;103016.13;;;3.91;70.23
36222;BME280;22266;52.340;4.962;2023-01-28T00:35:41;103022.78;;;3.98;69.89
36222;BME280;22266;52.340;4.962;2023-01-28T00:38:09;103017.16;;;4.03;69.84
36222;BME280;22266;52.340;4.962;2023-01-28T00:40:35;103012.38;;;4.08;69.54
36222;BME280;22266;52.340;4.962;2023-01-28T00:43:02;103021.03;;;4.11;69.79
36222;BME280;22266;52.340;4.962;2023-01-28T00:45:28;103020.38;;;4.08;69.09
36222;BME280;22266;52.340;4.962;2023-01-28T00:47:55;103018.78;;;4.05;69.69
36222;BME280;22266;52.340;4.962;2023-01-28T00:50:21;103022.31;;;4.06;69.22
36222;BME280;22266;52.340;4.962;2023-01-28T00:52:48;103011.53;;;4.07;69.72
36222;BME280;22266;52.340;4.962;2023-01-28T00:55:14;103011.44;;;4.09;69.28
36222;BME280;22266;52.340;4.962;2023-01-28T00:57:41;103019.06;;;4.01;68.84
36222;BME280;22266;52.340;4.962;2023-01-28T01:00:08;103020.97;;;3.99;69.23
36222;BME280;22266;52.340;4.962;2023-01-28T01:02:34;103024.38;;;4.01;69.17
36222;BME280;22266;52.340;4.962;2023-01-28T01:05:01;103022.50;;;4.03;69.05
36222;BME280;22266;52.340;4.962;2023-01-28T01:07:30;103026.31;;;3.99;68.78
36222;BME280;22266;52.340;4.962;2023-01-28T01:10:12;103016.03;;;3.92;68.93
36222;BME280;22266;52.340;4.962;2023-01-28T01:12:39;103024.03;;;3.92;69.45
36222;BME280;22266;52.340;4.962;2023-01-28T01:15:07;103021.34;;;3.92;69.18
36222;BME280;22266;52.340;4.962;2023-01-28T01:17:36;103025.47;;;3.84;69.39
36222;BME280;22266;52.340;4.962;2023-01-28T01:20:07;103026.78;;;3.77;68.92
36222;BME280;22266;52.340;4.962;2023-01-28T01:22:35;103025.94;;;3.76;69.05
36222;BME280;22266;52.340;4.962;2023-01-28T01:25:03;103021.56;;;3.75;69.33
36222;BME280;22266;52.340;4.962;2023-01-28T01:27:30;103024.91;;;3.79;69.36
36222;BME280;22266;52.340;4.962;2023-01-28T01:29:57;103028.91;;;3.86;69.15
36222;BME280;22266;52.340;4.962;2023-01-28T01:32:29;103035.63;;;3.91;68.76
36222;BME280;22266;52.340;4.962;2023-01-28T01:34:55;103025.94;;;3.90;68.53
36222;BME280;22266;52.340;4.962;2023-01-28T01:37:23;103017.38;;;3.85;68.42
36222;BME280;22266;52.340;4.962;2023-01-28T01:39:50;103029.56;;;3.75;68.16
36222;BME280;22266;52.340;4.962;2023-01-28T01:42:17;103030.81;;;3.69;68.43
36222;BME280;22266;52.340;4.962;2023-01-28T01:45:07;103028.03;;;3.71;68.79
36222;BME280;22266;52.340;4.962;2023-01-28T01:52:50;103028.06;;;3.85;67.76
36222;BME280;22266;52.340;4.962;2023-01-28T01:55:20;103018.53;;;3.81;67.91
36222;BME280;22266;52.340;4.962;2023-01-28T01:57:51;103023.56;;;3.86;68.11
36222;BME280;22266;52.340;4.962;2023-01-28T02:00:19;103021.94;;;3.83;68.13
36222;BME280;22266;52.340;4.962;2023-01-28T02:02:47;103026.25;;;3.86;68.00
36222;BME280;22266;52.340;4.962;2023-01-28T02:05:18;103028.06;;;3.85;67.83
36222;BME280;22266;52.340;4.962;2023-01-28T02:07:47;103021.09;;;3.83;68.12
36222;BME280;22266;52.340;4.962;2023-01-28T02:10:16;103030.72;;;3.85;67.59
36222;BME280;22266;52.340;4.962;2023-01-28T02:12:46;103038.13;;;3.80;67.70
36222;BME280;22266;52.340;4.962;2023-01-28T02:15:20;103031.38;;;3.75;67.65
36222;BME280;22266;52.340;4.962;2023-01-28T02:17:49;103037.56;;;3.75;68.09
36222;BME280;22266;52.340;4.962;2023-01-28T02:20:22;103036.03;;;3.71;67.90
36222;BME280;22266;52.340;4.962;2023-01-28T02:26:09;103054.78;;;3.69;68.23
36222;BME280;22266;52.340;4.962;2023-01-28T02:29:07;103043.47;;;3.66;67.30
36222;BME280;22266;52.340;4.962;2023-01-28T02:34:33;103041.75;;;3.65;68.58
36222;BME280;22266;52.340;4.962;2023-01-28T02:37:25;103030.16;;;3.66;67.90
36222;BME280;22266;52.340;4.962;2023-01-28T02:40:15;103031.09;;;3.65;67.95
36222;BME280;22266;52.340;4.962;2023-01-28T02:42:45;103041.53;;;3.68;68.42
36222;BME280;22266;52.340;4.962;2023-01-28T02:45:24;103048.09;;;3.77;68.32
36222;BME280;22266;52.340;4.962;2023-01-28T02:48:13;103041.56;;;3.82;68.60
36222;BME280;22266;52.340;4.962;2023-01-28T02:51:13;103033.44;;;3.84;68.23
36222;BME280;22266;52.340;4.962;2023-01-28T02:53:56;103034.13;;;3.87;68.17
36222;BME280;22266;52.340;4.962;2023-01-28T02:56:37;103026.31;;;3.84;67.97
36222;BME280;22266;52.340;4.962;2023-01-28T03:02:11;103033.75;;;3.79;68.47
36222;BME280;22266;52.340;4.962;2023-01-28T03:05:00;103039.75;;;3.83;68.54
36222;BME280;22266;52.340;4.962;2023-01-28T03:07:30;103039.06;;;3.79;68.31
36222;BME280;22266;52.340;4.962;2023-01-28T03:10:01;103037.56;;;3.75;68.29
36222;BME280;22266;52.340;4.962;2023-01-28T03:12:30;103026.78;;;3.77;67.99
36222;BME280;22266;52.340;4.962;2023-01-28T03:15:29;103024.06;;;3.78;67.96
36222;BME280;22266;52.340;4.962;2023-01-28T03:21:05;103034.41;;;3.68;67.51
36222;BME280;22266;52.340;4.962;2023-01-28T03:23:56;103033.94;;;3.62;68.14
36222;BME280;22266;52.340;4.962;2023-01-28T03:29:56;103028.69;;;3.60;67.69
36222;BME280;22266;52.340;4.962;2023-01-28T03:32:43;103026.03;;;3.60;67.75
36222;BME280;22266;52.340;4.962;2023-01-28T03:35:31;103029.28;;;3.51;67.63
36222;BME280;22266;52.340;4.962;2023-01-28T03:38:19;103021.41;;;3.50;67.78
36222;BME280;22266;52.340;4.962;2023-01-28T03:41:01;103036.97;;;3.56;67.96
36222;BME280;22266;52.340;4.962;2023-01-28T03:43:29;103041.94;;;3.62;67.90
36222;BME280;22266;52.340;4.962;2023-01-28T03:45:56;103041.94;;;3.62;67.38
36222;BME280;22266;52.340;4.962;2023-01-28T03:48:25;103047.16;;;3.63;67.49
36222;BME280;22266;52.340;4.962;2023-01-28T03:50:54;103044.13;;;3.55;66.94
36222;BME280;22266;52.340;4.962;2023-01-28T03:53:23;103043.38;;;3.53;67.93
36222;BME280;22266;52.340;4.962;2023-01-28T03:55:52;103040.72;;;3.53;67.17
36222;BME280;22266;52.340;4.962;2023-01-28T03:58:20;103054.75;;;3.55;67.29
36222;BME280;22266;52.340;4.962;2023-01-28T04:00:49;103053.91;;;3.55;67.23
36222;BME280;22266;52.340;4.962;2023-01-28T04:03:17;103053.06;;;3.54;67.40
36222;BME280;22266;52.340;4.962;2023-01-28T04:06:02;103056.28;;;3.59;67.29
36222;BME280;22266;52.340;4.962;2023-01-28T04:08:47;103056.84;;;3.64;66.91
36222;BME280;22266;52.340;4.962;2023-01-28T04:11:30;103065.34;;;3.71;66.70
36222;BME280;22266;52.340;4.962;2023-01-28T04:13:59;103065.16;;;3.74;67.28
36222;BME280;22266;52.340;4.962;2023-01-28T04:16:34;103067.03;;;3.72;66.38
36222;BME280;22266;52.340;4.962;2023-01-28T04:19:01;103063.69;;;3.68;66.45
36222;BME280;22266;52.340;4.962;2023-01-28T04:21:27;103058.19;;;3.71;66.43
36222;BME280;22266;52.340;4.962;2023-01-28T04:23:54;103054.56;;;3.72;66.55
36222;BME280;22266;52.340;4.962;2023-01-28T04:26:21;103048.09;;;3.77;66.86
36222;BME280;22266;52.340;4.962;2023-01-28T04:28:47;103043.47;;;3.66;65.56
36222;BME280;22266;52.340;4.962;2023-01-28T04:31:15;103044.03;;;3.57;66.26
36222;BME280;22266;52.340;4.962;2023-01-28T04:33:53;103046.59;;;3.58;66.21
36222;BME280;22266;52.340;4.962;2023-01-28T04:36:30;103052.47;;;3.63;66.95
36222;BME280;22266;52.340;4.962;2023-01-28T04:39:10;103039.00;;;3.66;66.58
36222;BME280;22266;52.340;4.962;2023-01-28T04:41:36;103039.72;;;3.68;66.23
36222;BME280;22266;52.340;4.962;2023-01-28T04:44:11;103047.81;;;3.67;66.06
36222;BME280;22266;52.340;4.962;2023-01-28T04:47:14;103045.94;;;3.69;66.09
36222;BME280;22266;52.340;4.962;2023-01-28T04:49:49;103043.28;;;3.69;66.14
36222;BME280;22266;52.340;4.962;2023-01-28T04:52:25;103038.69;;;3.71;65.89
36222;BME280;22266;52.340;4.962;2023-01-28T04:55:03;103046.56;;;3.72;66.18
36222;BME280;22266;52.340;4.962;2023-01-28T04:57:29;103052.78;;;3.73;65.68
36222;BME280;22266;52.340;4.962;2023-01-28T04:59:57;103050.59;;;3.65;65.90
36222;BME280;22266;52.340;4.962;2023-01-28T05:02:25;103060.19;;;3.68;65.67
36222;BME280;22266;52.340;4.962;2023-01-28T05:04:52;103063.69;;;3.68;66.11
36222;BME280;22266;52.340;4.962;2023-01-28T05:07:41;103063.53;;;3.71;66.12
36222;BME280;22266;52.340;4.962;2023-01-28T05:10:09;103072.28;;;3.74;66.07
36222;BME280;22266;52.340;4.962;2023-01-28T05:12:35;103069.25;;;3.65;65.95
36222;BME280;22266;52.340;4.962;2023-01-28T05:15:06;103066.66;;;3.64;65.71
36222;BME280;22266;52.340;4.962;2023-01-28T05:17:33;103061.16;;;3.53;65.71
36222;BME280;22266;52.340;4.962;2023-01-28T05:20:00;103052.78;;;3.44;65.96
36222;BME280;22266;52.340;4.962;2023-01-28T05:22:27;103052.63;;;3.32;64.79
36222;BME280;22266;52.340;4.962;2023-01-28T05:25:09;103053.88;;;3.26;65.58
36222;BME280;22266;52.340;4.962;2023-01-28T05:27:35;103050.06;;;3.30;66.45
36222;BME280;22266;52.340;4.962;2023-01-28T05:30:02;103050.56;;;3.37;66.55
36222;BME280;22266;52.340;4.962;2023-01-28T05:32:29;103043.44;;;3.37;66.24
36222;BME280;22266;52.340;4.962;2023-01-28T05:34:55;103039.81;;;3.38;66.12
36222;BME280;22266;52.340;4.962;2023-01-28T05:37:22;103043.06;;;3.43;66.15
36222;BME280;22266;52.340;4.962;2023-01-28T05:39:52;103043.66;;;3.49;66.34
36222;BME280;22266;52.340;4.962;2023-01-28T05:42:18;103047.16;;;3.49;66.36
36222;BME280;22266;52.340;4.962;2023-01-28T05:44:47;103040.03;;;3.50;66.17
36222;BME280;22266;52.340;4.962;2023-01-28T05:47:17;103050.28;;;3.41;65.96
36222;BME280;22266;52.340;4.962;2023-01-28T05:50:05;103058.56;;;3.37;66.34
36222;BME280;22266;52.340;4.962;2023-01-28T05:53:07;103053.13;;;3.38;65.84
36222;BME280;22266;52.340;4.962;2023-01-28T05:55:35;103056.47;;;3.42;65.67
36222;BME280;22266;52.340;4.962;2023-01-28T05:58:01;103056.38;;;3.43;65.79
36222;BME280;22266;52.340;4.962;2023-01-28T06:00:28;103053.91;;;3.40;65.30
36222;BME280;22266;52.340;4.962;2023-01-28T06:02:54;103055.06;;;3.36;66.03
36222;BME280;22266;52.340;4.962;2023-01-28T06:05:22;103049.34;;;3.42;66.09
36222;BME280;22266;52.340;4.962;2023-01-28T06:07:49;103045.44;;;3.48;65.94
36222;BME280;22266;52.340;4.962;2023-01-28T06:10:16;103049.53;;;3.54;65.86
36222;BME280;22266;52.340;4.962;2023-01-28T06:12:45;103054.88;;;3.54;65.68
36222;BME280;22266;52.340;4.962;2023-01-28T06:15:31;103050.28;;;3.56;65.89
36222;BME280;22266;52.340;4.962;2023-01-28T06:18:00;103064.56;;;3.55;65.57
36222;BME280;22266;52.340;4.962;2023-01-28T06:20:30;103053.91;;;3.55;66.23
36222;BME280;22266;52.340;4.962;2023-01-28T06:22:58;103049.44;;;3.55;65.41
36222;BME280;22266;52.340;4.962;2023-01-28T06:25:25;103051.91;;;3.58;65.81
36222;BME280;22266;52.340;4.962;2023-01-28T06:27:52;103059.72;;;3.61;65.89
36222;BME280;22266;52.340;4.962;2023-01-28T06:30:19;103065.72;;;3.65;65.18
36222;BME280;22266;52.340;4.962;2023-01-28T06:32:45;103070.38;;;3.61;65.16
36222;BME280;22266;52.340;4.962;2023-01-28T06:35:11;103064.38;;;3.58;66.03
36222;BME280;22266;52.340;4.962;2023-01-28T06:37:38;103066.88;;;3.61;66.04
36222;BME280;22266;52.340;4.962;2023-01-28T06:40:05;103064.94;;;3.63;66.14
36222;BME280;22266;52.340;4.962;2023-01-28T06:42:31;103069.13;;;3.67;66.25
36222;BME280;22266;52.340;4.962;2023-01-28T06:44:58;103063.81;;;3.67;65.81
36222;BME280;22266;52.340;4.962;2023-01-28T06:47:24;103069.13;;;3.67;65.84
36222;BME280;22266;52.340;4.962;2023-01-28T06:49:51;103065.50;;;3.68;66.00
36222;BME280;22266;52.340;4.962;2023-01-28T06:52:17;103067.25;;;3.69;66.14
36222;BME280;22266;52.340;4.962;2023-01-28T06:54:44;103061.91;;;3.69;65.95
36222;BME280;22266;52.340;4.962;2023-01-28T06:57:10;103070.66;;;3.71;65.85
36222;BME280;22266;52.340;4.962;2023-01-28T06:59:36;103063.63;;;3.70;66.09
36222;BME280;22266;52.340;4.962;2023-01-28T07:02:03;103065.44;;;3.69;65.51
36222;BME280;22266;52.340;4.962;2023-01-28T07:04:30;103075.13;;;3.70;66.07
36222;BME280;22266;52.340;4.962;2023-01-28T07:06:57;103069.81;;;3.70;65.51
36222;BME280;22266;52.340;4.962;2023-01-28T07:09:23;103075.88;;;3.72;65.75
36222;BME280;22266;52.340;4.962;2023-01-28T07:11:49;103074.09;;;3.73;66.04
36222;BME280;22266;52.340;4.962;2023-01-28T07:14:16;103074.34;;;3.68;65.49
36222;BME280;22266;52.340;4.962;2023-01-28T07:16:42;103073.59;;;3.66;65.90
36222;BME280;22266;52.340;4.962;2023-01-28T07:19:09;103078.84;;;3.68;65.80
36222;BME280;22266;52.340;4.962;2023-01-28T07:21:35;103070.94;;;3.66;65.65
36222;BME280;22266;52.340;4.962;2023-01-28T07:24:02;103066.47;;;3.67;65.52
36222;BME280;22266;52.340;4.962;2023-01-28T07:26:30;103066.47;;;3.67;65.70
36222;BME280;22266;52.340;4.962;2023-01-28T07:28:57;103062.09;;;3.66;65.77
36222;BME280;22266;52.340;4.962;2023-01-28T07:31:23;103069.81;;;3.70;65.41
36222;BME280;22266;52.340;4.962;2023-01-28T07:33:50;103077.69;;;3.72;65.92
36222;BME280;22266;52.340;4.962;2023-01-28T07:36:16;103082.16;;;3.71;65.49
36222;BME280;22266;52.340;4.962;2023-01-28T07:38:42;103084.81;;;3.71;65.50
36222;BME280;22266;52.340;4.962;2023-01-28T07:41:09;103086.94;;;3.66;65.37
36222;BME280;22266;52.340;4.962;2023-01-28T07:43:36;103082.56;;;3.65;65.52
36222;BME280;22266;52.340;4.962;2023-01-28T07:46:02;103091.69;;;3.61;65.32
36222;BME280;22266;52.340;4.962;2023-01-28T07:48:29;103089.88;;;3.62;65.36
36222;BME280;22266;52.340;4.962;2023-01-28T07:50:58;103087.97;;;3.64;65.41
36222;BME280;22266;52.340;4.962;2023-01-28T07:53:25;103085.41;;;3.62;65.59
36222;BME280;22266;52.340;4.962;2023-01-28T07:55:56;103097.00;;;3.61;65.49
36222;BME280;22266;52.340;4.962;2023-01-28T07:58:23;103094.53;;;3.58;65.69
36222;BME280;22266;52.340;4.962;2023-01-28T08:00:49;103090.53;;;3.51;65.91
36222;BME280;22266;52.340;4.962;2023-01-28T08:03:16;103089.47;;;3.54;65.83
36222;BME280;22266;52.340;4.962;2023-01-28T08:05:50;103093.19;;;3.51;65.85
36222;BME280;22266;52.340;4.962;2023-01-28T08:08:18;103085.13;;;3.53;66.47
36222;BME280;22266;52.340;4.962;2023-01-28T08:10:45;103093.75;;;3.56;66.19
36222;BME280;22266;52.340;4.962;2023-01-28T08:13:12;103094.53;;;3.58;66.05
36222;BME280;22266;52.340;4.962;2023-01-28T08:15:40;103095.50;;;3.57;66.27
36222;BME280;22266;52.340;4.962;2023-01-28T08:18:08;103099.97;;;3.57;66.31
36222;BME280;22266;52.340;4.962;2023-01-28T08:20:34;103108.59;;;3.60;66.22
36222;BME280;22266;52.340;4.962;2023-01-28T08:23:13;103113.66;;;3.65;66.65
36222;BME280;22266;52.340;4.962;2023-01-28T08:25:40;103119.63;;;3.68;66.39
36222;BME280;22266;52.340;4.962;2023-01-28T08:28:07;103124.72;;;3.73;66.30
36222;BME280;22266;52.340;4.962;2023-01-28T08:30:35;103139.63;;;3.76;66.13
36222;BME280;22266;52.340;4.962;2023-01-28T08:33:05;103128.13;;;3.75;66.05
36222;BME280;22266;52.340;4.962;2023-01-28T08:35:32;103113.66;;;3.79;66.08
36222;BME280;22266;52.340;4.962;2023-01-28T08:38:00;103115.47;;;3.79;66.07
36222;BME280;22266;52.340;4.962;2023-01-28T08:40:27;103122.50;;;3.80;65.78
36222;BME280;22266;52.340;4.962;2023-01-28T08:42:54;103132.13;;;3.82;66.09
36222;BME280;22266;52.340;4.962;2023-01-28T08:45:23;103129.94;;;3.89;65.73
36222;BME280;22266;52.340;4.962;2023-01-28T08:47:55;103126.53;;;4.01;65.93
36222;BME280;22266;52.340;4.962;2023-01-28T08:50:23;103127.09;;;4.06;65.39
36222;BME280;22266;52.340;4.962;2023-01-28T08:52:54;103132.81;;;4.14;65.06
36222;BME280;22266;52.340;4.962;2023-01-28T08:55:22;103139.25;;;4.25;65.10
36222;BME280;22266;52.340;4.962;2023-01-28T08:57:49;103139.34;;;4.37;64.81
36222;BME280;22266;52.340;4.962;2023-01-28T09:00:16;103143.16;;;4.47;64.08
36222;BME280;22266;52.340;4.962;2023-01-28T09:02:43;103145.63;;;4.51;63.66
36222;BME280;22266;52.340;4.962;2023-01-28T09:05:09;103141.88;;;4.53;63.01
36222;BME280;22266;52.340;4.962;2023-01-28T09:07:37;103146.66;;;4.62;63.19
36222;BME280;22266;52.340;4.962;2023-01-28T09:10:04;103151.69;;;4.67;62.80
36222;BME280;22266;52.340;4.962;2023-01-28T09:12:31;103170.06;;;4.71;62.79
36222;BME280;22266;52.340;4.962;2023-01-28T09:14:58;103164.84;;;4.70;62.51
36222;BME280;22266;52.340;4.962;2023-01-28T09:17:24;103162.34;;;4.67;62.30
36222;BME280;22266;52.340;4.962;2023-01-28T09:19:51;103164.47;;;4.62;62.49
36222;BME280;22266;52.340;4.962;2023-01-28T09:22:17;103168.28;;;4.58;63.14
36222;BME280;22266;52.340;4.962;2023-01-28T09:24:44;103175.50;;;4.70;62.87
36222;BME280;22266;52.340;4.962;2023-01-28T09:27:10;103172.47;;;4.89;62.47
36222;BME280;22266;52.340;4.962;2023-01-28T09:29:37;103159.19;;;5.02;62.85
36222;BME280;22266;52.340;4.962;2023-01-28T09:32:05;103156.38;;;5.17;62.24
36222;BME280;22266;52.340;4.962;2023-01-28T09:34:32;103162.03;;;5.26;61.42
36222;BME280;22266;52.340;4.962;2023-01-28T09:36:59;103165.50;;;5.28;60.64
36222;BME280;22266;52.340;4.962;2023-01-28T09:39:26;103165.56;;;5.26;60.42
36222;BME280;22266;52.340;4.962;2023-01-28T09:44:51;103172.72;;;5.26;60.67
36222;BME280;22266;52.340;4.962;2023-01-28T09:47:42;103186.19;;;5.24;60.92
36222;BME280;22266;52.340;4.962;2023-01-28T09:52:49;103191.69;;;5.35;60.75
36222;BME280;22266;52.340;4.962;2023-01-28T09:55:28;103199.47;;;5.38;60.41
36222;BME280;22266;52.340;4.962;2023-01-28T09:57:56;103195.75;;;5.41;60.36
36222;BME280;22266;52.340;4.962;2023-01-28T10:00:28;103182.41;;;5.41;60.13
36222;BME280;22266;52.340;4.962;2023-01-28T10:06:11;103187.84;;;5.39;59.75
36222;BME280;22266;52.340;4.962;2023-01-28T10:08:59;103182.81;;;5.35;59.49
36222;BME280;22266;52.340;4.962;2023-01-28T10:14:17;103170.09;;;5.38;60.00
36222;BME280;22266;52.340;4.962;2023-01-28T10:17:03;103170.97;;;5.39;59.82
36222;BME280;22266;52.340;4.962;2023-01-28T10:19:36;103177.16;;;5.39;60.12
36222;BME280;22266;52.340;4.962;2023-01-28T10:22:12;103178.41;;;5.34;59.72
36222;BME280;22266;52.340;4.962;2023-01-28T10:24:47;103176.81;;;5.31;59.79
36222;BME280;22266;52.340;4.962;2023-01-28T10:27:22;103179.06;;;5.37;59.89
36222;BME280;22266;52.340;4.962;2023-01-28T10:29:50;103163.59;;;5.42;59.04
36222;BME280;22266;52.340;4.962;2023-01-28T10:34:56;103167.75;;;5.46;59.15
36222;BME280;22266;52.340;4.962;2023-01-28T10:37:36;103171.09;;;5.50;58.92
36222;BME280;22266;52.340;4.962;2023-01-28T10:40:11;103143.84;;;5.45;58.81
36222;BME280;22266;52.340;4.962;2023-01-28T10:42:38;103140.72;;;5.38;58.63
36222;BME280;22266;52.340;4.962;2023-01-28T10:45:18;103128.75;;;5.31;59.23
36222;BME280;22266;52.340;4.962;2023-01-28T10:47:53;103125.13;;;5.32;59.45
36222;BME280;22266;52.340;4.962;2023-01-28T10:50:24;103118.72;;;5.35;59.89
36222;BME280;22266;52.340;4.962;2023-01-28T10:53:02;103110.81;;;5.46;59.90
36222;BME280;22266;52.340;4.962;2023-01-28T10:55:45;103096.94;;;5.54;59.58
36222;BME280;22266;52.340;4.962;2023-01-28T10:58:21;103103.88;;;5.56;59.47
36222;BME280;22266;52.340;4.962;2023-01-28T11:01:06;103104.03;;;5.93;64.45
36222;BME280;22266;52.340;4.962;2023-01-28T11:03:32;103080.06;;;5.91;61.54
36222;BME280;22266;52.340;4.962;2023-01-28T11:06:02;103084.00;;;6.48;70.92
36222;BME280;22266;52.340;4.962;2023-01-28T11:08:42;103076.78;;;6.61;63.22
36222;BME280;22266;52.340;4.962;2023-01-28T11:11:13;103074.25;;;6.47;60.81
36222;BME280;22266;52.340;4.962;2023-01-28T11:13:49;103069.31;;;6.30;59.38
36222;BME280;22266;52.340;4.962;2023-01-28T11:16:16;103066.66;;;6.17;58.76
36222;BME280;22266;52.340;4.962;2023-01-28T11:18:52;103060.91;;;5.98;57.98
36222;BME280;22266;52.340;4.962;2023-01-28T11:21:22;103061.44;;;5.90;58.32
36222;BME280;22266;52.340;4.962;2023-01-28T11:23:53;103054.47;;;5.87;58.08
36222;BME280;22266;52.340;4.962;2023-01-28T11:26:27;103058.31;;;5.83;58.55
36222;BME280;22266;52.340;4.962;2023-01-28T11:28:55;103069.13;;;5.82;58.70
36222;BME280;22266;52.340;4.962;2023-01-28T11:31:22;103065.50;;;5.83;58.78
36222;BME280;22266;52.340;4.962;2023-01-28T11:33:55;103062.81;;;5.83;58.63
36222;BME280;22266;52.340;4.962;2023-01-28T11:36:28;103059.31;;;5.82;58.80
36222;BME280;22266;52.340;4.962;2023-01-28T11:39:16;103067.09;;;5.85;58.55
36222;BME280;22266;52.340;4.962;2023-01-28T11:41:46;103065.63;;;5.81;57.99
36222;BME280;22266;52.340;4.962;2023-01-28T11:44:26;103073.97;;;5.77;58.34
36222;BME280;22266;52.340;4.962;2023-01-28T11:47:12;103072.34;;;5.74;59.23
36222;BME280;22266;52.340;4.962;2023-01-28T11:50:16;103070.53;;;5.75;60.03
36222;BME280;22266;52.340;4.962;2023-01-28T11:55:41;103080.59;;;5.84;59.90
36222;BME280;22266;52.340;4.962;2023-01-28T12:01:03;103089.34;;;5.99;59.97
36222;BME280;22266;52.340;4.962;2023-01-28T12:03:51;103093.63;;;6.01;59.44
36222;BME280;22266;52.340;4.962;2023-01-28T12:09:37;103094.38;;;6.03;58.68
36222;BME280;22266;52.340;4.962;2023-01-28T12:12:21;103093.41;;;6.17;58.68
36222;BME280;22266;52.340;4.962;2023-01-28T12:26:20;103055.47;;;6.36;58.99
36222;BME280;22266;52.340;4.962;2023-01-28T12:29:07;103044.44;;;6.40;59.12
36222;BME280;22266;52.340;4.962;2023-01-28T12:31:52;103040.69;;;6.43;59.04
36222;BME280;22266;52.340;4.962;2023-01-28T12:37:29;103018.00;;;6.60;58.20
36222;BME280;22266;52.340;4.962;2023-01-28T12:43:20;103009.97;;;6.84;57.93
36222;BME280;22266;52.340;4.962;2023-01-28T12:46:05;103009.69;;;6.76;57.70
36222;BME280;22266;52.340;4.962;2023-01-28T12:48:41;103000.75;;;6.64;57.78
36222;BME280;22266;52.340;4.962;2023-01-28T12:51:34;103008.47;;;6.44;57.88
36222;BME280;22266;52.340;4.962;2023-01-28T12:54:15;103008.06;;;6.38;58.58
36222;BME280;22266;52.340;4.962;2023-01-28T12:56:54;103016.50;;;6.44;59.15
36222;BME280;22266;52.340;4.962;2023-01-28T12:59:27;103014.22;;;6.51;59.17
36222;BME280;22266;52.340;4.962;2023-01-28T13:04:57;103001.50;;;6.66;58.24
36222;BME280;22266;52.340;4.962;2023-01-28T13:07:47;102999.09;;;6.74;58.12
36222;BME280;22266;52.340;4.962;2023-01-28T13:10:42;103003.25;;;6.78;58.53
36222;BME280;22266;52.340;4.962;2023-01-28T13:13:35;103000.47;;;6.80;58.59
36222;BME280;22266;52.340;4.962;2023-01-28T13:16:04;102995.72;;;6.83;57.91
36222;BME280;22266;52.340;4.962;2023-01-28T13:21:08;102990.84;;;6.77;57.82
36222;BME280;22266;52.340;4.962;2023-01-28T13:23:39;102996.31;;;6.76;57.68
36222;BME280;22266;52.340;4.962;2023-01-28T13:26:10;102998.97;;;6.76;58.12
36222;BME280;22266;52.340;4.962;2023-01-28T13:28:37;102997.91;;;6.78;58.67
36222;BME280;22266;52.340;4.962;2023-01-28T13:31:09;103002.06;;;6.82;58.01
36222;BME280;22266;52.340;4.962;2023-01-28T13:34:08;103003.19;;;6.91;57.86
36222;BME280;22266;52.340;4.962;2023-01-28T13:36:44;103011.59;;;6.98;57.87
36222;BME280;22266;52.340;4.962;2023-01-28T13:41:47;103004.03;;;6.91;57.92
36222;BME280;22266;52.340;4.962;2023-01-28T13:44:27;103000.00;;;6.86;57.63
36222;BME280;22266;52.340;4.962;2023-01-28T13:49:50;102998.72;;;6.67;58.62
36222;BME280;22266;52.340;4.962;2023-01-28T13:52:26;103000.03;;;6.62;58.42
36222;BME280;22266;52.340;4.962;2023-01-28T14:00:46;103023.56;;;6.46;59.46
36222;BME280;22266;52.340;4.962;2023-01-28T14:03:57;103011.38;;;6.41;59.69
36222;BME280;22266;52.340;4.962;2023-01-28T14:06:37;103012.56;;;6.37;59.20
36222;BME280;22266;52.340;4.962;2023-01-28T14:17:32;103003.34;;;6.17;60.23
36222;BME280;22266;52.340;4.962;2023-01-28T14:20:02;102992.13;;;6.12;59.80
36222;BME280;22266;52.340;4.962;2023-01-28T14:22:28;102996.72;;;6.10;60.23
36222;BME280;22266;52.340;4.962;2023-01-28T14:24:59;102997.06;;;6.06;60.95
36222;BME280;22266;52.340;4.962;2023-01-28T14:27:31;103007.75;;;6.06;60.88
36222;BME280;22266;52.340;4.962;2023-01-28T14:30:28;103001.69;;;6.04;60.75
36222;BME280;22266;52.340;4.962;2023-01-28T14:32:59;103008.22;;;6.00;60.56
36222;BME280;22266;52.340;4.962;2023-01-28T14:35:32;103006.81;;;5.94;60.84
36222;BME280;22266;52.340;4.962;2023-01-28T14:38:06;103005.97;;;5.93;61.45
36222;BME280;22266;52.340;4.962;2023-01-28T14:40:37;103009.50;;;5.94;61.56
36222;BME280;22266;52.340;4.962;2023-01-28T14:43:07;103013.56;;;6.00;61.22
36222;BME280;22266;52.340;4.962;2023-01-28T14:48:36;103028.94;;;6.09;61.66
36222;BME280;22266;52.340;4.962;2023-01-28T14:51:16;103033.19;;;6.11;61.72
36222;BME280;22266;52.340;4.962;2023-01-28T14:53:54;103022.47;;;6.11;60.66
36222;BME280;22266;52.340;4.962;2023-01-28T14:56:51;103022.28;;;6.14;61.33